createdAt,value
2022-10-17T17:49:17.087Z,101965.44
2022-10-17T17:52:20.875Z,101965.19
2022-10-17T17:55:24.556Z,101963.75
2022-10-17T17:58:28.133Z,101971.78
2022-10-17T18:01:36.675Z,101967.44
2022-10-17T18:04:41.623Z,101973.91
2022-10-17T18:07:45.253Z,101978.56
2022-10-17T18:10:49.810Z,101984.47
2022-10-17T18:13:57.420Z,101988.44
2022-10-17T18:17:01.039Z,101981.19
2022-10-17T18:20:07.122Z,101976.84
2022-10-17T18:23:11.568Z,101973.91
2022-10-17T18:26:15.736Z,101977.81
2022-10-17T18:29:20.058Z,101977.09
2022-10-17T18:32:24.143Z,101973.47
2022-10-17T18:35:29.265Z,101977.31
2022-10-17T18:38:32.980Z,101986.75
2022-10-17T18:41:36.657Z,101992.31
2022-10-17T18:44:40.344Z,101985.53
2022-10-17T18:47:44.919Z,101986.50
2022-10-17T18:50:51.417Z,101990.16
2022-10-17T18:53:58.586Z,102009.16
2022-10-17T18:57:02.294Z,102011.69
2022-10-17T19:00:07.122Z,102016.88
2022-10-17T19:03:10.708Z,102012.94
2022-10-17T19:06:18.206Z,102017.84
2022-10-17T19:09:21.903Z,102015.22
2022-10-17T19:12:25.491Z,102014.00
2022-10-17T19:15:29.107Z,102022.22
2022-10-17T19:18:32.696Z,102026.34
2022-10-17T19:21:37.746Z,102029.63
2022-10-17T19:24:41.589Z,102030.34
2022-10-17T19:27:45.386Z,102024.91
2022-10-17T19:30:49.129Z,102026.94
2022-10-17T19:33:53.498Z,102028.16
2022-10-17T19:36:58.865Z,102027.09
2022-10-17T19:40:03.843Z,102016.06
2022-10-17T19:43:07.554Z,102016.19
2022-10-17T19:46:13.501Z,102025.66
2022-10-17T19:49:17.472Z,102029.78
2022-10-17T19:52:22.606Z,102041.09
2022-10-17T19:55:26.296Z,102051.88
2022-10-17T19:58:30.479Z,102051.97
2022-10-17T20:01:38.725Z,102046.06
2022-10-17T20:04:49.791Z,102056.22
2022-10-17T20:08:05.219Z,102055.25
2022-10-17T20:11:10.683Z,102047.00
2022-10-17T20:14:14.217Z,102055.25
2022-10-17T20:17:17.716Z,102063.84
2022-10-17T20:20:21.328Z,102072.91
2022-10-17T20:23:26.194Z,102071.28
2022-10-17T20:26:38.308Z,102080.28
2022-10-17T20:29:42.590Z,102081.59
2022-10-17T20:32:46.130Z,102094.91
2022-10-17T20:35:49.982Z,102085.44
2022-10-17T20:38:55.860Z,102090.06
2022-10-17T20:41:59.504Z,102095.94
2022-10-17T20:45:03.071Z,102103.56
